sensor_id;sensor_type;location;lat;lon;timestamp;temperature;humidity
10441;DHT22;5268;49.346;9.522;2023-05-07T03:08:10;12.70;99.90
10441;DHT22;5268;49.346;9.522;2023-05-07T03:13:12;12.70;99.90
10441;DHT22;5268;49.346;9.522;2023-05-07T03:18:14;12.70;99.90
10441;DHT22;5268;49.346;9.522;2023-05-07T03:23:17;12.60;99.90
10441;DHT22;5268;49.346;9.522;2023-05-07T03:28:19;12.50;99.90
10441;DHT22;5268;49.346;9.522;2023-05-07T03:33:21;12.30;99.90
10441;DHT22;5268;49.346;9.522;2023-05-07T03:38:25;12.30;99.90
10441;DHT22;5268;49.346;9.522;2023-05-07T03:43:26;12.30;99.90
10441;DHT22;5268;49.346;9.522;2023-05-07T03:48:28;12.30;99.90
10441;DHT22;5268;49.346;9.522;2023-05-07T03:53:32;12.40;99.90
10441;DHT22;5268;49.346;9.522;2023-05-07T03:58:34;12.40;99.90
10441;DHT22;5268;49.346;9.522;2023-05-07T04:03:36;12.30;99.90
10441;DHT22;5268;49.346;9.522;2023-05-07T04:08:39;12.30;99.90
10441;DHT22;5268;49.346;9.522;2023-05-07T04:13:41;12.30;99.90
10441;DHT22;5268;49.346;9.522;2023-05-07T04:18:43;12.30;99.90
10441;DHT22;5268;49.346;9.522;2023-05-07T04:23:47;12.20;99.90
10441;DHT22;5268;49.346;9.522;2023-05-07T04:28:49;12.10;99.90
10441;DHT22;5268;49.346;9.522;2023-05-07T04:33:51;12.00;99.90
10441;DHT22;5268;49.346;9.522;2023-05-07T04:38:54;12.00;99.90
10441;DHT22;5268;49.346;9.522;2023-05-07T04:43:56;12.10;99.90
10441;DHT22;5268;49.346;9.522;2023-05-07T04:48:59;12.20;99.90
10441;DHT22;5268;49.346;9.522;2023-05-07T04:54:02;12.20;99.90
10441;DHT22;5268;49.346;9.522;2023-05-07T04:59:04;12.20;99.90
10441;DHT22;5268;49.346;9.522;2023-05-07T05:04:07;12.20;99.90
10441;DHT22;5268;49.346;9.522;2023-05-07T05:09:10;12.30;99.90
10441;DHT22;5268;49.346;9.522;2023-05-07T05:14:12;12.40;99.90
10441;DHT22;5268;49.346;9.522;2023-05-07T05:19:14;12.30;99.90
10441;DHT22;5268;49.346;9.522;2023-05-07T05:24:17;12.30;99.90
10441;DHT22;5268;49.346;9.522;2023-05-07T05:29:20;12.40;99.90
10441;DHT22;5268;49.346;9.522;2023-05-07T05:34:22;12.40;99.90
10441;DHT22;5268;49.346;9.522;2023-05-07T05:39:26;12.50;99.90
10441;DHT22;5268;49.346;9.522;2023-05-07T05:44:28;12.70;99.90
10441;DHT22;5268;49.346;9.522;2023-05-07T05:49:30;12.70;99.90
10441;DHT22;5268;49.346;9.522;2023-05-07T05:54:33;12.70;99.90
10441;DHT22;5268;49.346;9.522;2023-05-07T05:59:35;12.80;99.90
10441;DHT22;5268;49.346;9.522;2023-05-07T06:04:37;12.90;99.90
10441;DHT22;5268;49.346;9.522;2023-05-07T06:09:40;13.00;99.90
10441;DHT22;5268;49.346;9.522;2023-05-07T06:14:43;13.10;99.90
10441;DHT22;5268;49.346;9.522;2023-05-07T06:19:45;13.20;99.90
10441;DHT22;5268;49.346;9.522;2023-05-07T06:24:48;13.30;99.90
10441;DHT22;5268;49.346;9.522;2023-05-07T06:29:50;13.40;99.90
10441;DHT22;5268;49.346;9.522;2023-05-07T06:34:52;13.60;99.90
10441;DHT22;5268;49.346;9.522;2023-05-07T06:39:55;13.80;99.90
10441;DHT22;5268;49.346;9.522;2023-05-07T06:45:00;14.00;99.90
10441;DHT22;5268;49.346;9.522;2023-05-07T06:50:03;14.20;99.90
10441;DHT22;5268;49.346;9.522;2023-05-07T06:55:08;14.40;99.90
10441;DHT22;5268;49.346;9.522;2023-05-07T07:00:12;14.60;99.90
10441;DHT22;5268;49.346;9.522;2023-05-07T07:05:14;14.80;99.90
10441;DHT22;5268;49.346;9.522;2023-05-07T07:10:18;15.10;99.90
10441;DHT22;5268;49.346;9.522;2023-05-07T07:15:20;15.50;99.90
10441;DHT22;5268;49.346;9.522;2023-05-07T07:20:22;15.90;99.90
10441;DHT22;5268;49.346;9.522;2023-05-07T07:25:26;16.30;99.90
10441;DHT22;5268;49.346;9.522;2023-05-07T07:30:27;16.50;99.90
10441;DHT22;5268;49.346;9.522;2023-05-07T07:35:30;16.70;99.90
10441;DHT22;5268;49.346;9.522;2023-05-07T07:40:34;16.90;99.90
10441;DHT22;5268;49.346;9.522;2023-05-07T07:45:36;17.10;99.90
10441;DHT22;5268;49.346;9.522;2023-05-07T07:50:38;17.20;99.90
10441;DHT22;5268;49.346;9.522;2023-05-07T07:55:42;17.40;99.90
10441;DHT22;5268;49.346;9.522;2023-05-07T08:00:44;17.50;99.90
10441;DHT22;5268;49.346;9.522;2023-05-07T08:05:46;17.80;99.90
10441;DHT22;5268;49.346;9.522;2023-05-07T08:10:49;17.90;99.90
10441;DHT22;5268;49.346;9.522;2023-05-07T08:15:51;18.20;99.90
10441;DHT22;5268;49.346;9.522;2023-05-07T08:20:53;18.80;99.90
10441;DHT22;5268;49.346;9.522;2023-05-07T08:25:56;19.00;99.90
10441;DHT22;5268;49.346;9.522;2023-05-07T08:30:58;19.30;99.90
10441;DHT22;5268;49.346;9.522;2023-05-07T08:36:01;19.70;99.90
10441;DHT22;5268;49.346;9.522;2023-05-07T08:41:05;19.90;99.90
10441;DHT22;5268;49.346;9.522;2023-05-07T08:46:09;20.20;99.90
10441;DHT22;5268;49.346;9.522;2023-05-07T08:51:13;20.50;99.90
10441;DHT22;5268;49.346;9.522;2023-05-07T08:56:17;20.90;99.90
10441;DHT22;5268;49.346;9.522;2023-05-07T09:01:20;21.30;99.90
10441;DHT22;5268;49.346;9.522;2023-05-07T09:06:22;21.50;99.90
10441;DHT22;5268;49.346;9.522;2023-05-07T09:11:26;21.50;99.90
10441;DHT22;5268;49.346;9.522;2023-05-07T09:16:29;21.80;99.90
10441;DHT22;5268;49.346;9.522;2023-05-07T09:21:31;21.70;99.90
10441;DHT22;5268;49.346;9.522;2023-05-07T09:26:35;21.90;99.90
10441;DHT22;5268;49.346;9.522;2023-05-07T09:31:37;21.90;99.90
10441;DHT22;5268;49.346;9.522;2023-05-07T09:36:39;22.00;99.90
10441;DHT22;5268;49.346;9.522;2023-05-07T09:41:46;21.90;99.90
10441;DHT22;5268;49.346;9.522;2023-05-07T09:46:54;22.00;99.90
10441;DHT22;5268;49.346;9.522;2023-05-07T09:51:56;22.20;99.90
10441;DHT22;5268;49.346;9.522;2023-05-07T09:57:01;22.70;99.90
10441;DHT22;5268;49.346;9.522;2023-05-07T10:02:04;23.00;99.90
10441;DHT22;5268;49.346;9.522;2023-05-07T10:07:07;23.20;99.90
10441;DHT22;5268;49.346;9.522;2023-05-07T10:12:11;23.30;99.90
10441;DHT22;5268;49.346;9.522;2023-05-07T10:17:15;23.10;99.90
10441;DHT22;5268;49.346;9.522;2023-05-07T10:22:18;23.60;99.90
10441;DHT22;5268;49.346;9.522;2023-05-07T10:27:22;23.70;99.90
10441;DHT22;5268;49.346;9.522;2023-05-07T10:32:37;24.00;99.90
10441;DHT22;5268;49.346;9.522;2023-05-07T10:37:41;24.30;99.90
10441;DHT22;5268;49.346;9.522;2023-05-07T10:43:06;24.60;99.90
10441;DHT22;5268;49.346;9.522;2023-05-07T10:48:10;24.80;99.90
10441;DHT22;5268;49.346;9.522;2023-05-07T10:53:22;23.90;99.90
10441;DHT22;5268;49.346;9.522;2023-05-07T10:58:30;24.10;99.90
10441;DHT22;5268;49.346;9.522;2023-05-07T11:03:33;24.40;99.90
10441;DHT22;5268;49.346;9.522;2023-05-07T11:08:54;24.10;99.90
10441;DHT22;5268;49.346;9.522;2023-05-07T11:13:58;24.60;99.90
10441;DHT22;5268;49.346;9.522;2023-05-07T11:19:00;24.40;99.90
10441;DHT22;5268;49.346;9.522;2023-05-07T11:24:03;24.20;99.90
10441;DHT22;5268;49.346;9.522;2023-05-07T11:29:10;24.50;99.90
10441;DHT22;5268;49.346;9.522;2023-05-07T11:34:13;24.80;99.90
10441;DHT22;5268;49.346;9.522;2023-05-07T11:39:28;24.70;99.90
10441;DHT22;5268;49.346;9.522;2023-05-07T11:44:44;24.80;99.90
10441;DHT22;5268;49.346;9.522;2023-05-07T11:49:48;24.60;99.90
10441;DHT22;5268;49.346;9.522;2023-05-07T11:54:51;24.20;99.90
10441;DHT22;5268;49.346;9.522;2023-05-07T11:59:55;24.50;99.90
10441;DHT22;5268;49.346;9.522;2023-05-07T12:04:56;24.30;99.90
10441;DHT22;5268;49.346;9.522;2023-05-07T12:09:58;24.40;99.90
10441;DHT22;5268;49.346;9.522;2023-05-07T12:15:02;24.20;99.90
10441;DHT22;5268;49.346;9.522;2023-05-07T12:20:05;24.60;99.90
10441;DHT22;5268;49.346;9.522;2023-05-07T12:25:08;24.30;99.90
10441;DHT22;5268;49.346;9.522;2023-05-07T12:30:13;24.50;99.90
10441;DHT22;5268;49.346;9.522;2023-05-07T12:35:16;24.90;99.90
10441;DHT22;5268;49.346;9.522;2023-05-07T12:40:18;25.10;99.90
10441;DHT22;5268;49.346;9.522;2023-05-07T12:45:21;25.20;99.90
10441;DHT22;5268;49.346;9.522;2023-05-07T12:50:23;25.30;99.90
10441;DHT22;5268;49.346;9.522;2023-05-07T12:55:25;25.00;99.90
10441;DHT22;5268;49.346;9.522;2023-05-07T13:00:37;25.30;99.90
10441;DHT22;5268;49.346;9.522;2023-05-07T13:05:39;25.50;99.90
10441;DHT22;5268;49.346;9.522;2023-05-07T13:10:41;25.00;99.90
10441;DHT22;5268;49.346;9.522;2023-05-07T13:15:44;24.70;99.90
10441;DHT22;5268;49.346;9.522;2023-05-07T13:20:46;25.00;99.90
10441;DHT22;5268;49.346;9.522;2023-05-07T13:25:48;25.10;99.90
10441;DHT22;5268;49.346;9.522;2023-05-07T13:30:52;25.00;99.90
10441;DHT22;5268;49.346;9.522;2023-05-07T13:35:55;24.80;99.90
10441;DHT22;5268;49.346;9.522;2023-05-07T13:40:58;24.80;99.90
10441;DHT22;5268;49.346;9.522;2023-05-07T13:46:01;24.60;99.90
10441;DHT22;5268;49.346;9.522;2023-05-07T13:51:03;24.60;99.90
10441;DHT22;5268;49.346;9.522;2023-05-07T13:56:05;24.50;99.90
10441;DHT22;5268;49.346;9.522;2023-05-07T14:01:09;24.80;99.90
10441;DHT22;5268;49.346;9.522;2023-05-07T14:06:11;24.60;99.90
10441;DHT22;5268;49.346;9.522;2023-05-07T14:11:13;24.50;99.90
10441;DHT22;5268;49.346;9.522;2023-05-07T14:16:16;24.40;99.90
10441;DHT22;5268;49.346;9.522;2023-05-07T14:21:18;24.40;99.90
10441;DHT22;5268;49.346;9.522;2023-05-07T14:26:20;24.30;99.90
10441;DHT22;5268;49.346;9.522;2023-05-07T14:31:25;24.10;99.90
10441;DHT22;5268;49.346;9.522;2023-05-07T14:36:27;24.10;99.90
10441;DHT22;5268;49.346;9.522;2023-05-07T14:41:30;24.10;99.90
10441;DHT22;5268;49.346;9.522;2023-05-07T14:46:35;24.00;99.90
10441;DHT22;5268;49.346;9.522;2023-05-07T14:51:37;24.00;99.90
10441;DHT22;5268;49.346;9.522;2023-05-07T14:56:39;23.90;99.90
10441;DHT22;5268;49.346;9.522;2023-05-07T15:01:42;23.80;99.90
10441;DHT22;5268;49.346;9.522;2023-05-07T15:06:45;23.80;99.90
10441;DHT22;5268;49.346;9.522;2023-05-07T15:11:47;23.70;99.90
10441;DHT22;5268;49.346;9.522;2023-05-07T15:16:51;23.50;99.90
10441;DHT22;5268;49.346;9.522;2023-05-07T15:21:53;23.40;99.90
10441;DHT22;5268;49.346;9.522;2023-05-07T15:26:55;23.20;99.90
10441;DHT22;5268;49.346;9.522;2023-05-07T15:31:58;22.70;99.90
10441;DHT22;5268;49.346;9.522;2023-05-07T15:37:00;22.20;99.90
10441;DHT22;5268;49.346;9.522;2023-05-07T15:42:03;21.80;99.90
10441;DHT22;5268;49.346;9.522;2023-05-07T15:47:06;21.30;99.90
10441;DHT22;5268;49.346;9.522;2023-05-07T15:52:08;21.00;99.90
10441;DHT22;5268;49.346;9.522;2023-05-07T15:57:14;20.70;99.90
10441;DHT22;5268;49.346;9.522;2023-05-07T16:02:17;20.40;99.90
10441;DHT22;5268;49.346;9.522;2023-05-07T16:07:19;20.10;99.90
10441;DHT22;5268;49.346;9.522;2023-05-07T16:12:22;19.80;99.90
10441;DHT22;5268;49.346;9.522;2023-05-07T16:17:25;19.60;99.90
10441;DHT22;5268;49.346;9.522;2023-05-07T16:22:27;19.40;99.90
10441;DHT22;5268;49.346;9.522;2023-05-07T16:27:29;19.20;99.90
10441;DHT22;5268;49.346;9.522;2023-05-07T16:32:33;19.00;99.90
10441;DHT22;5268;49.346;9.522;2023-05-07T16:37:35;18.90;99.90
10441;DHT22;5268;49.346;9.522;2023-05-07T16:42:37;18.80;99.90
10441;DHT22;5268;49.346;9.522;2023-05-07T16:47:41;18.60;99.90
10441;DHT22;5268;49.346;9.522;2023-05-07T16:52:43;18.50;99.90
10441;DHT22;5268;49.346;9.522;2023-05-07T16:57:45;18.40;99.90
10441;DHT22;5268;49.346;9.522;2023-05-07T17:02:48;18.30;99.90
10441;DHT22;5268;49.346;9.522;2023-05-07T17:07:50;18.30;99.90
10441;DHT22;5268;49.346;9.522;2023-05-07T17:12:52;18.10;99.90
10441;DHT22;5268;49.346;9.522;2023-05-07T17:17:56;18.10;99.90
10441;DHT22;5268;49.346;9.522;2023-05-07T17:22:58;18.00;99.90
10441;DHT22;5268;49.346;9.522;2023-05-07T17:27:59;18.00;99.90
10441;DHT22;5268;49.346;9.522;2023-05-07T17:33:03;17.90;99.90
10441;DHT22;5268;49.346;9.522;2023-05-07T17:38:05;18.00;99.90
10441;DHT22;5268;49.346;9.522;2023-05-07T17:43:07;17.90;99.90
10441;DHT22;5268;49.346;9.522;2023-05-07T17:48:10;17.90;99.90
10441;DHT22;5268;49.346;9.522;2023-05-07T17:53:12;17.90;99.90
10441;DHT22;5268;49.346;9.522;2023-05-07T17:58:14;17.90;99.90
10441;DHT22;5268;49.346;9.522;2023-05-07T18:03:17;18.00;99.90
10441;DHT22;5268;49.346;9.522;2023-05-07T18:08:19;17.90;99.90
10441;DHT22;5268;49.346;9.522;2023-05-07T18:13:21;18.00;99.90
10441;DHT22;5268;49.346;9.522;2023-05-07T18:18:25;18.00;99.90
10441;DHT22;5268;49.346;9.522;2023-05-07T18:23:30;18.00;99.90
10441;DHT22;5268;49.346;9.522;2023-05-07T18:28:35;17.90;99.90
10441;DHT22;5268;49.346;9.522;2023-05-07T18:33:38;17.90;99.90
10441;DHT22;5268;49.346;9.522;2023-05-07T18:38:40;17.80;99.90
10441;DHT22;5268;49.346;9.522;2023-05-07T18:43:42;17.80;99.90
10441;DHT22;5268;49.346;9.522;2023-05-07T18:48:45;17.70;99.90
10441;DHT22;5268;49.346;9.522;2023-05-07T18:53:48;17.70;99.90
10441;DHT22;5268;49.346;9.522;2023-05-07T18:58:49;17.70;99.90
10441;DHT22;5268;49.346;9.522;2023-05-07T19:03:53;17.70;99.90
10441;DHT22;5268;49.346;9.522;2023-05-07T19:08:55;17.70;99.90
10441;DHT22;5268;49.346;9.522;2023-05-07T19:13:57;17.60;99.90
10441;DHT22;5268;49.346;9.522;2023-05-07T19:19:00;17.60;99.90
10441;DHT22;5268;49.346;9.522;2023-05-07T19:24:02;17.50;99.90
10441;DHT22;5268;49.346;9.522;2023-05-07T19:29:04;17.50;99.90
10441;DHT22;5268;49.346;9.522;2023-05-07T19:34:08;17.50;99.90
10441;DHT22;5268;49.346;9.522;2023-05-07T19:39:10;17.40;99.90
10441;DHT22;5268;49.346;9.522;2023-05-07T19:44:12;17.40;99.90
10441;DHT22;5268;49.346;9.522;2023-05-07T19:49:15;17.30;99.90
10441;DHT22;5268;49.346;9.522;2023-05-07T19:54:17;17.30;99.90
10441;DHT22;5268;49.346;9.522;2023-05-07T19:59:20;17.30;99.90
10441;DHT22;5268;49.346;9.522;2023-05-07T20:04:23;17.30;99.90
10441;DHT22;5268;49.346;9.522;2023-05-07T20:09:29;17.20;99.90
10441;DHT22;5268;49.346;9.522;2023-05-07T20:14:32;17.10;99.90
10441;DHT22;5268;49.346;9.522;2023-05-07T20:19:35;17.00;99.90
10441;DHT22;5268;49.346;9.522;2023-05-07T20:24:37;16.90;99.90
10441;DHT22;5268;49.346;9.522;2023-05-07T20:29:39;16.90;99.90
10441;DHT22;5268;49.346;9.522;2023-05-07T20:34:43;16.90;99.90
10441;DHT22;5268;49.346;9.522;2023-05-07T20:39:45;16.90;99.90
10441;DHT22;5268;49.346;9.522;2023-05-07T20:44:47;16.90;99.90
10441;DHT22;5268;49.346;9.522;2023-05-07T20:49:51;16.90;99.90
10441;DHT22;5268;49.346;9.522;2023-05-07T20:54:53;16.90;99.90
10441;DHT22;5268;49.346;9.522;2023-05-07T20:59:55;16.90;99.90
10441;DHT22;5268;49.346;9.522;2023-05-07T21:04:58;16.90;99.90
10441;DHT22;5268;49.346;9.522;2023-05-07T21:10:00;16.90;99.90
10441;DHT22;5268;49.346;9.522;2023-05-07T21:15:02;16.90;99.90
10441;DHT22;5268;49.346;9.522;2023-05-07T21:20:07;16.90;99.90
10441;DHT22;5268;49.346;9.522;2023-05-07T21:25:09;16.80;99.90
10441;DHT22;5268;49.346;9.522;2023-05-07T21:30:13;16.80;99.90
10441;DHT22;5268;49.346;9.522;2023-05-07T21:35:17;16.80;99.90
10441;DHT22;5268;49.346;9.522;2023-05-07T21:40:19;16.70;99.90
10441;DHT22;5268;49.346;9.522;2023-05-07T21:45:21;16.70;99.90
10441;DHT22;5268;49.346;9.522;2023-05-07T21:50:24;16.60;99.90
